sensor_id;sensor_type;location;lat;lon;timestamp;P1;durP1;ratioP1;P2;durP2;ratioP2
33844;SDS011;20145;43.118;25.694;2023-05-17T00:00:53;8.13;;;4.95;;
33844;SDS011;20145;43.118;25.694;2023-05-17T00:03:19;6.85;;;4.70;;
33844;SDS011;20145;43.118;25.694;2023-05-17T00:05:44;7.03;;;4.90;;
33844;SDS011;20145;43.118;25.694;2023-05-17T00:08:10;10.70;;;5.22;;
33844;SDS011;20145;43.118;25.694;2023-05-17T00:10:35;9.23;;;4.63;;
33844;SDS011;20145;43.118;25.694;2023-05-17T00:13:01;11.48;;;4.63;;
33844;SDS011;20145;43.118;25.694;2023-05-17T00:15:28;12.23;;;4.63;;
33844;SDS011;20145;43.118;25.694;2023-05-17T00:17:53;12.43;;;4.82;;
33844;SDS011;20145;43.118;25.694;2023-05-17T00:20:19;8.65;;;4.10;;
33844;SDS011;20145;43.118;25.694;2023-05-17T00:22:45;13.45;;;4.65;;
33844;SDS011;20145;43.118;25.694;2023-05-17T00:25:11;9.60;;;4.45;;
33844;SDS011;20145;43.118;25.694;2023-05-17T00:27:37;8.20;;;4.47;;
33844;SDS011;20145;43.118;25.694;2023-05-17T00:30:03;14.23;;;4.57;;
33844;SDS011;20145;43.118;25.694;2023-05-17T00:32:29;13.93;;;4.95;;
33844;SDS011;20145;43.118;25.694;2023-05-17T00:34:54;14.00;;;6.55;;
33844;SDS011;20145;43.118;25.694;2023-05-17T00:37:20;15.68;;;5.85;;
33844;SDS011;20145;43.118;25.694;2023-05-17T00:39:45;12.25;;;5.07;;
33844;SDS011;20145;43.118;25.694;2023-05-17T00:42:11;10.65;;;5.65;;
33844;SDS011;20145;43.118;25.694;2023-05-17T00:44:37;14.45;;;6.03;;
33844;SDS011;20145;43.118;25.694;2023-05-17T00:47:02;9.95;;;5.38;;
33844;SDS011;20145;43.118;25.694;2023-05-17T00:49:28;8.23;;;5.10;;
33844;SDS011;20145;43.118;25.694;2023-05-17T00:51:54;13.48;;;5.80;;
33844;SDS011;20145;43.118;25.694;2023-05-17T00:54:20;14.48;;;5.40;;
33844;SDS011;20145;43.118;25.694;2023-05-17T00:56:47;12.82;;;6.22;;
33844;SDS011;20145;43.118;25.694;2023-05-17T00:59:13;17.85;;;6.30;;
33844;SDS011;20145;43.118;25.694;2023-05-17T01:01:40;8.07;;;5.10;;
33844;SDS011;20145;43.118;25.694;2023-05-17T01:04:07;14.15;;;6.18;;
33844;SDS011;20145;43.118;25.694;2023-05-17T01:06:34;8.48;;;4.65;;
33844;SDS011;20145;43.118;25.694;2023-05-17T01:09:00;12.38;;;4.25;;
33844;SDS011;20145;43.118;25.694;2023-05-17T01:20:10;14.02;;;5.22;;
33844;SDS011;20145;43.118;25.694;2023-05-17T01:22:45;16.70;;;5.13;;
33844;SDS011;20145;43.118;25.694;2023-05-17T01:28:02;10.38;;;4.68;;
33844;SDS011;20145;43.118;25.694;2023-05-17T01:30:29;12.75;;;4.80;;
33844;SDS011;20145;43.118;25.694;2023-05-17T01:32:57;14.20;;;5.30;;
33844;SDS011;20145;43.118;25.694;2023-05-17T01:35:23;14.95;;;5.45;;
33844;SDS011;20145;43.118;25.694;2023-05-17T01:37:49;9.93;;;5.00;;
33844;SDS011;20145;43.118;25.694;2023-05-17T01:40:18;17.25;;;5.55;;
33844;SDS011;20145;43.118;25.694;2023-05-17T01:42:45;9.27;;;5.22;;
33844;SDS011;20145;43.118;25.694;2023-05-17T01:45:33;10.23;;;5.30;;
33844;SDS011;20145;43.118;25.694;2023-05-17T01:48:14;10.23;;;5.72;;
33844;SDS011;20145;43.118;25.694;2023-05-17T01:50:49;8.95;;;5.70;;
33844;SDS011;20145;43.118;25.694;2023-05-17T01:53:43;7.93;;;5.10;;
33844;SDS011;20145;43.118;25.694;2023-05-17T01:56:14;13.90;;;6.20;;
33844;SDS011;20145;43.118;25.694;2023-05-17T01:58:45;14.55;;;5.82;;
33844;SDS011;20145;43.118;25.694;2023-05-17T02:01:14;11.68;;;5.13;;
33844;SDS011;20145;43.118;25.694;2023-05-17T02:03:42;11.43;;;5.32;;
33844;SDS011;20145;43.118;25.694;2023-05-17T02:06:07;16.85;;;5.45;;
33844;SDS011;20145;43.118;25.694;2023-05-17T02:08:33;9.20;;;4.88;;
33844;SDS011;20145;43.118;25.694;2023-05-17T02:10:58;12.65;;;5.95;;
33844;SDS011;20145;43.118;25.694;2023-05-17T02:13:24;8.30;;;4.63;;
33844;SDS011;20145;43.118;25.694;2023-05-17T02:15:49;14.38;;;5.20;;
33844;SDS011;20145;43.118;25.694;2023-05-17T02:18:15;16.13;;;5.63;;
33844;SDS011;20145;43.118;25.694;2023-05-17T02:20:41;17.77;;;5.55;;
33844;SDS011;20145;43.118;25.694;2023-05-17T02:23:07;9.70;;;4.43;;
33844;SDS011;20145;43.118;25.694;2023-05-17T02:25:33;11.70;;;5.18;;
33844;SDS011;20145;43.118;25.694;2023-05-17T02:27:59;15.43;;;5.93;;
33844;SDS011;20145;43.118;25.694;2023-05-17T02:30:24;8.20;;;5.13;;
33844;SDS011;20145;43.118;25.694;2023-05-17T02:32:50;15.40;;;4.63;;
33844;SDS011;20145;43.118;25.694;2023-05-17T02:35:15;11.40;;;4.55;;
33844;SDS011;20145;43.118;25.694;2023-05-17T02:37:41;13.57;;;6.40;;
33844;SDS011;20145;43.118;25.694;2023-05-17T02:40:07;13.75;;;6.07;;
33844;SDS011;20145;43.118;25.694;2023-05-17T02:42:37;10.85;;;5.95;;
33844;SDS011;20145;43.118;25.694;2023-05-17T02:45:02;12.35;;;5.88;;
33844;SDS011;20145;43.118;25.694;2023-05-17T02:47:28;14.55;;;5.90;;
33844;SDS011;20145;43.118;25.694;2023-05-17T02:49:54;17.35;;;7.45;;
33844;SDS011;20145;43.118;25.694;2023-05-17T02:52:20;11.50;;;7.00;;
33844;SDS011;20145;43.118;25.694;2023-05-17T02:54:45;13.35;;;5.65;;
33844;SDS011;20145;43.118;25.694;2023-05-17T02:57:12;10.75;;;4.65;;
33844;SDS011;20145;43.118;25.694;2023-05-17T02:59:37;21.65;;;4.20;;
33844;SDS011;20145;43.118;25.694;2023-05-17T03:02:03;8.70;;;4.30;;
33844;SDS011;20145;43.118;25.694;2023-05-17T03:04:29;8.52;;;4.35;;
33844;SDS011;20145;43.118;25.694;2023-05-17T03:06:54;9.73;;;4.35;;
33844;SDS011;20145;43.118;25.694;2023-05-17T03:09:20;9.20;;;4.28;;
33844;SDS011;20145;43.118;25.694;2023-05-17T03:11:46;8.15;;;4.05;;
33844;SDS011;20145;43.118;25.694;2023-05-17T03:14:12;11.48;;;5.15;;
33844;SDS011;20145;43.118;25.694;2023-05-17T03:16:38;11.07;;;4.78;;
33844;SDS011;20145;43.118;25.694;2023-05-17T03:19:03;9.05;;;4.38;;
33844;SDS011;20145;43.118;25.694;2023-05-17T03:21:29;10.63;;;4.70;;
33844;SDS011;20145;43.118;25.694;2023-05-17T03:23:54;9.02;;;5.10;;
33844;SDS011;20145;43.118;25.694;2023-05-17T03:26:21;8.98;;;4.57;;
33844;SDS011;20145;43.118;25.694;2023-05-17T03:28:48;5.72;;;3.80;;
33844;SDS011;20145;43.118;25.694;2023-05-17T03:31:14;7.60;;;4.70;;
33844;SDS011;20145;43.118;25.694;2023-05-17T03:33:39;8.25;;;4.00;;
33844;SDS011;20145;43.118;25.694;2023-05-17T03:36:05;11.82;;;3.90;;
33844;SDS011;20145;43.118;25.694;2023-05-17T03:38:31;8.25;;;3.90;;
33844;SDS011;20145;43.118;25.694;2023-05-17T03:40:57;9.40;;;3.95;;
33844;SDS011;20145;43.118;25.694;2023-05-17T03:43:22;10.57;;;3.67;;
33844;SDS011;20145;43.118;25.694;2023-05-17T03:45:48;6.97;;;3.58;;
33844;SDS011;20145;43.118;25.694;2023-05-17T03:48:13;6.88;;;3.55;;
33844;SDS011;20145;43.118;25.694;2023-05-17T03:50:39;7.80;;;3.72;;
33844;SDS011;20145;43.118;25.694;2023-05-17T03:53:05;8.23;;;4.00;;
33844;SDS011;20145;43.118;25.694;2023-05-17T03:55:31;25.95;;;6.80;;
33844;SDS011;20145;43.118;25.694;2023-05-17T03:57:56;8.00;;;3.90;;
33844;SDS011;20145;43.118;25.694;2023-05-17T04:00:22;5.97;;;4.35;;
33844;SDS011;20145;43.118;25.694;2023-05-17T04:02:49;6.43;;;4.90;;
33844;SDS011;20145;43.118;25.694;2023-05-17T04:05:15;8.80;;;4.93;;
33844;SDS011;20145;43.118;25.694;2023-05-17T04:07:41;12.23;;;6.53;;
33844;SDS011;20145;43.118;25.694;2023-05-17T04:10:07;9.73;;;5.40;;
33844;SDS011;20145;43.118;25.694;2023-05-17T04:12:33;7.13;;;5.05;;
33844;SDS011;20145;43.118;25.694;2023-05-17T04:14:59;11.43;;;5.50;;
33844;SDS011;20145;43.118;25.694;2023-05-17T04:17:26;10.02;;;4.80;;
33844;SDS011;20145;43.118;25.694;2023-05-17T04:19:51;9.75;;;4.75;;
33844;SDS011;20145;43.118;25.694;2023-05-17T04:22:18;6.20;;;4.50;;
33844;SDS011;20145;43.118;25.694;2023-05-17T04:24:46;10.30;;;5.20;;
33844;SDS011;20145;43.118;25.694;2023-05-17T04:27:12;9.82;;;4.63;;
33844;SDS011;20145;43.118;25.694;2023-05-17T04:29:38;7.82;;;5.50;;
33844;SDS011;20145;43.118;25.694;2023-05-17T04:32:05;7.85;;;4.90;;
33844;SDS011;20145;43.118;25.694;2023-05-17T04:34:31;8.95;;;7.32;;
33844;SDS011;20145;43.118;25.694;2023-05-17T04:36:57;11.20;;;5.75;;
33844;SDS011;20145;43.118;25.694;2023-05-17T04:39:23;11.43;;;5.18;;
33844;SDS011;20145;43.118;25.694;2023-05-17T04:41:49;12.35;;;6.53;;
33844;SDS011;20145;43.118;25.694;2023-05-17T04:44:15;14.23;;;7.22;;
33844;SDS011;20145;43.118;25.694;2023-05-17T04:46:41;8.75;;;7.85;;
33844;SDS011;20145;43.118;25.694;2023-05-17T04:49:08;12.57;;;6.95;;
33844;SDS011;20145;43.118;25.694;2023-05-17T04:51:34;10.95;;;6.85;;
33844;SDS011;20145;43.118;25.694;2023-05-17T04:54:00;10.60;;;4.88;;
33844;SDS011;20145;43.118;25.694;2023-05-17T04:56:26;9.95;;;4.72;;
33844;SDS011;20145;43.118;25.694;2023-05-17T04:58:53;9.57;;;5.43;;
33844;SDS011;20145;43.118;25.694;2023-05-17T05:01:18;8.63;;;4.90;;
33844;SDS011;20145;43.118;25.694;2023-05-17T05:03:44;8.02;;;4.43;;
33844;SDS011;20145;43.118;25.694;2023-05-17T05:06:10;8.35;;;5.18;;
33844;SDS011;20145;43.118;25.694;2023-05-17T05:08:36;13.90;;;5.00;;
33844;SDS011;20145;43.118;25.694;2023-05-17T05:11:01;7.78;;;4.35;;
33844;SDS011;20145;43.118;25.694;2023-05-17T05:13:27;9.85;;;4.78;;
33844;SDS011;20145;43.118;25.694;2023-05-17T05:15:53;12.02;;;5.05;;
33844;SDS011;20145;43.118;25.694;2023-05-17T05:18:19;12.38;;;4.70;;
33844;SDS011;20145;43.118;25.694;2023-05-17T05:20:45;9.52;;;4.72;;
33844;SDS011;20145;43.118;25.694;2023-05-17T05:23:12;8.85;;;5.07;;
33844;SDS011;20145;43.118;25.694;2023-05-17T05:25:37;9.70;;;4.18;;
33844;SDS011;20145;43.118;25.694;2023-05-17T05:28:03;10.02;;;4.43;;
33844;SDS011;20145;43.118;25.694;2023-05-17T05:30:29;11.23;;;5.10;;
33844;SDS011;20145;43.118;25.694;2023-05-17T05:32:56;10.75;;;4.90;;
33844;SDS011;20145;43.118;25.694;2023-05-17T05:35:22;11.15;;;5.70;;
33844;SDS011;20145;43.118;25.694;2023-05-17T05:37:54;7.93;;;4.65;;
33844;SDS011;20145;43.118;25.694;2023-05-17T05:40:20;10.95;;;5.05;;
33844;SDS011;20145;43.118;25.694;2023-05-17T05:42:46;13.70;;;5.75;;
33844;SDS011;20145;43.118;25.694;2023-05-17T05:45:11;13.95;;;5.38;;
33844;SDS011;20145;43.118;25.694;2023-05-17T05:47:37;10.93;;;4.80;;
33844;SDS011;20145;43.118;25.694;2023-05-17T05:50:03;10.38;;;4.70;;
33844;SDS011;20145;43.118;25.694;2023-05-17T05:52:30;9.70;;;4.60;;
33844;SDS011;20145;43.118;25.694;2023-05-17T05:54:55;12.15;;;5.18;;
33844;SDS011;20145;43.118;25.694;2023-05-17T05:57:21;10.80;;;4.70;;
33844;SDS011;20145;43.118;25.694;2023-05-17T05:59:46;7.07;;;4.85;;
33844;SDS011;20145;43.118;25.694;2023-05-17T06:02:12;8.93;;;4.35;;
33844;SDS011;20145;43.118;25.694;2023-05-17T06:04:38;10.13;;;4.72;;
33844;SDS011;20145;43.118;25.694;2023-05-17T06:07:03;10.60;;;5.07;;
33844;SDS011;20145;43.118;25.694;2023-05-17T06:09:29;10.50;;;4.15;;
33844;SDS011;20145;43.118;25.694;2023-05-17T06:11:55;8.93;;;4.47;;
33844;SDS011;20145;43.118;25.694;2023-05-17T06:14:20;10.40;;;3.75;;
33844;SDS011;20145;43.118;25.694;2023-05-17T06:16:46;9.57;;;3.97;;
33844;SDS011;20145;43.118;25.694;2023-05-17T06:19:13;10.10;;;4.07;;
33844;SDS011;20145;43.118;25.694;2023-05-17T06:21:39;23.63;;;12.48;;
33844;SDS011;20145;43.118;25.694;2023-05-17T06:24:05;9.98;;;4.43;;
33844;SDS011;20145;43.118;25.694;2023-05-17T06:26:31;17.17;;;4.55;;
33844;SDS011;20145;43.118;25.694;2023-05-17T06:28:56;9.82;;;4.43;;
33844;SDS011;20145;43.118;25.694;2023-05-17T06:31:22;14.90;;;4.93;;
33844;SDS011;20145;43.118;25.694;2023-05-17T06:33:47;10.05;;;4.70;;
33844;SDS011;20145;43.118;25.694;2023-05-17T06:36:13;9.63;;;4.45;;
33844;SDS011;20145;43.118;25.694;2023-05-17T06:38:38;13.82;;;4.82;;
33844;SDS011;20145;43.118;25.694;2023-05-17T06:41:04;11.48;;;3.80;;
33844;SDS011;20145;43.118;25.694;2023-05-17T06:43:29;13.90;;;3.92;;
33844;SDS011;20145;43.118;25.694;2023-05-17T06:45:55;11.10;;;4.35;;
33844;SDS011;20145;43.118;25.694;2023-05-17T06:48:20;17.38;;;5.28;;
33844;SDS011;20145;43.118;25.694;2023-05-17T06:50:46;15.77;;;4.57;;
33844;SDS011;20145;43.118;25.694;2023-05-17T06:53:12;12.98;;;4.78;;
33844;SDS011;20145;43.118;25.694;2023-05-17T06:55:37;14.43;;;4.63;;
33844;SDS011;20145;43.118;25.694;2023-05-17T06:58:03;10.23;;;4.13;;
33844;SDS011;20145;43.118;25.694;2023-05-17T07:00:28;12.52;;;4.60;;
33844;SDS011;20145;43.118;25.694;2023-05-17T07:02:54;9.13;;;3.70;;
33844;SDS011;20145;43.118;25.694;2023-05-17T07:05:20;11.50;;;4.28;;
33844;SDS011;20145;43.118;25.694;2023-05-17T07:07:47;12.40;;;4.43;;
33844;SDS011;20145;43.118;25.694;2023-05-17T07:10:13;9.63;;;3.92;;
33844;SDS011;20145;43.118;25.694;2023-05-17T07:12:38;11.07;;;4.20;;
33844;SDS011;20145;43.118;25.694;2023-05-17T07:15:04;8.05;;;4.20;;
33844;SDS011;20145;43.118;25.694;2023-05-17T07:17:30;12.15;;;4.05;;
33844;SDS011;20145;43.118;25.694;2023-05-17T07:19:56;13.15;;;4.00;;
33844;SDS011;20145;43.118;25.694;2023-05-17T07:22:21;12.02;;;3.95;;
33844;SDS011;20145;43.118;25.694;2023-05-17T07:24:47;9.35;;;3.60;;
33844;SDS011;20145;43.118;25.694;2023-05-17T07:27:12;8.30;;;3.13;;
33844;SDS011;20145;43.118;25.694;2023-05-17T07:29:38;8.35;;;3.45;;
33844;SDS011;20145;43.118;25.694;2023-05-17T07:32:06;10.27;;;3.90;;
33844;SDS011;20145;43.118;25.694;2023-05-17T07:34:33;11.68;;;3.45;;
33844;SDS011;20145;43.118;25.694;2023-05-17T07:37:00;11.57;;;3.78;;
33844;SDS011;20145;43.118;25.694;2023-05-17T07:39:25;12.85;;;4.68;;
33844;SDS011;20145;43.118;25.694;2023-05-17T07:41:51;12.18;;;3.80;;
33844;SDS011;20145;43.118;25.694;2023-05-17T07:44:16;11.13;;;3.83;;
33844;SDS011;20145;43.118;25.694;2023-05-17T07:46:42;12.60;;;4.65;;
33844;SDS011;20145;43.118;25.694;2023-05-17T07:49:07;11.15;;;3.72;;
33844;SDS011;20145;43.118;25.694;2023-05-17T07:51:33;7.70;;;3.38;;
33844;SDS011;20145;43.118;25.694;2023-05-17T07:54:01;12.52;;;3.90;;
33844;SDS011;20145;43.118;25.694;2023-05-17T07:56:27;11.10;;;3.33;;
33844;SDS011;20145;43.118;25.694;2023-05-17T07:58:54;15.68;;;4.40;;
33844;SDS011;20145;43.118;25.694;2023-05-17T08:01:19;16.15;;;4.35;;
33844;SDS011;20145;43.118;25.694;2023-05-17T08:03:45;10.57;;;3.47;;
33844;SDS011;20145;43.118;25.694;2023-05-17T08:06:16;7.65;;;3.53;;
33844;SDS011;20145;43.118;25.694;2023-05-17T08:08:43;13.40;;;4.55;;
33844;SDS011;20145;43.118;25.694;2023-05-17T08:11:10;12.07;;;4.38;;
33844;SDS011;20145;43.118;25.694;2023-05-17T08:13:36;10.55;;;3.80;;
33844;SDS011;20145;43.118;25.694;2023-05-17T08:16:02;9.35;;;3.38;;
33844;SDS011;20145;43.118;25.694;2023-05-17T08:18:31;8.75;;;4.78;;
33844;SDS011;20145;43.118;25.694;2023-05-17T08:20:57;10.18;;;4.15;;
33844;SDS011;20145;43.118;25.694;2023-05-17T08:23:23;16.08;;;4.68;;
33844;SDS011;20145;43.118;25.694;2023-05-17T08:25:48;17.73;;;5.05;;
33844;SDS011;20145;43.118;25.694;2023-05-17T08:28:14;12.40;;;4.55;;
33844;SDS011;20145;43.118;25.694;2023-05-17T08:30:39;9.60;;;4.00;;
33844;SDS011;20145;43.118;25.694;2023-05-17T08:33:07;11.45;;;3.80;;
33844;SDS011;20145;43.118;25.694;2023-05-17T08:35:33;11.32;;;4.50;;
33844;SDS011;20145;43.118;25.694;2023-05-17T08:38:00;13.00;;;4.75;;
33844;SDS011;20145;43.118;25.694;2023-05-17T08:40:26;11.02;;;4.28;;
33844;SDS011;20145;43.118;25.694;2023-05-17T08:42:52;11.40;;;5.18;;
33844;SDS011;20145;43.118;25.694;2023-05-17T08:45:18;12.98;;;5.03;;
33844;SDS011;20145;43.118;25.694;2023-05-17T08:47:43;11.32;;;4.57;;
33844;SDS011;20145;43.118;25.694;2023-05-17T08:50:11;11.40;;;4.10;;
33844;SDS011;20145;43.118;25.694;2023-05-17T08:52:38;9.00;;;4.30;;
33844;SDS011;20145;43.118;25.694;2023-05-17T08:55:04;11.35;;;4.68;;
33844;SDS011;20145;43.118;25.694;2023-05-17T08:57:32;10.98;;;3.88;;
33844;SDS011;20145;43.118;25.694;2023-05-17T09:00:01;14.20;;;4.63;;
33844;SDS011;20145;43.118;25.694;2023-05-17T09:02:31;12.85;;;4.63;;
33844;SDS011;20145;43.118;25.694;2023-05-17T09:04:57;12.57;;;4.28;;
33844;SDS011;20145;43.118;25.694;2023-05-17T09:07:24;9.80;;;4.47;;
33844;SDS011;20145;43.118;25.694;2023-05-17T09:09:52;10.20;;;4.13;;
33844;SDS011;20145;43.118;25.694;2023-05-17T09:12:19;9.88;;;4.93;;
33844;SDS011;20145;43.118;25.694;2023-05-17T09:14:45;9.48;;;3.97;;
33844;SDS011;20145;43.118;25.694;2023-05-17T09:17:16;11.63;;;5.10;;
33844;SDS011;20145;43.118;25.694;2023-05-17T09:19:44;10.80;;;4.90;;
33844;SDS011;20145;43.118;25.694;2023-05-17T09:22:14;9.73;;;4.65;;
33844;SDS011;20145;43.118;25.694;2023-05-17T09:24:42;12.82;;;4.93;;
33844;SDS011;20145;43.118;25.694;2023-05-17T09:27:10;13.35;;;4.97;;
33844;SDS011;20145;43.118;25.694;2023-05-17T09:29:39;12.27;;;5.18;;
33844;SDS011;20145;43.118;25.694;2023-05-17T09:32:14;13.90;;;5.45;;
33844;SDS011;20145;43.118;25.694;2023-05-17T09:34:41;14.68;;;4.93;;
33844;SDS011;20145;43.118;25.694;2023-05-17T09:37:13;14.77;;;4.97;;
33844;SDS011;20145;43.118;25.694;2023-05-17T09:39:40;15.15;;;4.65;;
33844;SDS011;20145;43.118;25.694;2023-05-17T09:42:06;10.90;;;4.70;;
33844;SDS011;20145;43.118;25.694;2023-05-17T09:50:07;9.13;;;5.47;;
33844;SDS011;20145;43.118;25.694;2023-05-17T09:52:42;9.85;;;4.57;;
33844;SDS011;20145;43.118;25.694;2023-05-17T09:55:08;14.18;;;5.55;;
33844;SDS011;20145;43.118;25.694;2023-05-17T09:57:35;8.40;;;4.35;;
33844;SDS011;20145;43.118;25.694;2023-05-17T10:00:02;10.50;;;4.75;;
33844;SDS011;20145;43.118;25.694;2023-05-17T10:02:38;10.98;;;4.70;;
33844;SDS011;20145;43.118;25.694;2023-05-17T10:05:07;12.40;;;5.03;;
33844;SDS011;20145;43.118;25.694;2023-05-17T10:07:36;10.45;;;5.22;;
33844;SDS011;20145;43.118;25.694;2023-05-17T10:10:03;11.60;;;5.18;;
33844;SDS011;20145;43.118;25.694;2023-05-17T10:12:31;10.98;;;5.35;;
33844;SDS011;20145;43.118;25.694;2023-05-17T10:15:00;13.65;;;5.50;;
33844;SDS011;20145;43.118;25.694;2023-05-17T10:17:26;11.52;;;5.43;;
33844;SDS011;20145;43.118;25.694;2023-05-17T10:19:56;6.88;;;5.13;;
33844;SDS011;20145;43.118;25.694;2023-05-17T10:22:22;14.00;;;5.53;;
33844;SDS011;20145;43.118;25.694;2023-05-17T10:24:48;12.07;;;5.68;;
33844;SDS011;20145;43.118;25.694;2023-05-17T10:27:15;10.90;;;5.82;;
33844;SDS011;20145;43.118;25.694;2023-05-17T10:29:42;9.82;;;4.53;;
33844;SDS011;20145;43.118;25.694;2023-05-17T10:32:09;10.73;;;5.22;;
33844;SDS011;20145;43.118;25.694;2023-05-17T10:34:37;11.23;;;4.18;;
33844;SDS011;20145;43.118;25.694;2023-05-17T10:37:03;10.13;;;4.60;;
33844;SDS011;20145;43.118;25.694;2023-05-17T10:39:30;9.38;;;4.28;;
33844;SDS011;20145;43.118;25.694;2023-05-17T10:41:59;14.30;;;5.45;;
33844;SDS011;20145;43.118;25.694;2023-05-17T10:44:29;8.50;;;4.70;;
33844;SDS011;20145;43.118;25.694;2023-05-17T10:46:57;11.80;;;5.18;;
33844;SDS011;20145;43.118;25.694;2023-05-17T10:49:30;10.38;;;4.55;;
33844;SDS011;20145;43.118;25.694;2023-05-17T10:51:58;12.93;;;5.03;;
33844;SDS011;20145;43.118;25.694;2023-05-17T10:54:35;11.38;;;5.05;;
33844;SDS011;20145;43.118;25.694;2023-05-17T10:57:05;11.82;;;3.97;;
33844;SDS011;20145;43.118;25.694;2023-05-17T10:59:31;13.48;;;4.88;;
33844;SDS011;20145;43.118;25.694;2023-05-17T11:09:50;11.63;;;4.57;;
33844;SDS011;20145;43.118;25.694;2023-05-17T11:15:04;7.13;;;4.30;;
33844;SDS011;20145;43.118;25.694;2023-05-17T11:22:42;13.60;;;4.05;;
33844;SDS011;20145;43.118;25.694;2023-05-17T11:25:29;8.10;;;4.22;;
33844;SDS011;20145;43.118;25.694;2023-05-17T11:27:57;13.60;;;4.22;;
33844;SDS011;20145;43.118;25.694;2023-05-17T11:30:24;8.40;;;3.97;;
33844;SDS011;20145;43.118;25.694;2023-05-17T11:33:02;16.63;;;4.82;;
33844;SDS011;20145;43.118;25.694;2023-05-17T11:35:34;11.82;;;4.75;;
33844;SDS011;20145;43.118;25.694;2023-05-17T11:38:16;14.20;;;5.07;;
33844;SDS011;20145;43.118;25.694;2023-05-17T11:40:47;11.00;;;4.55;;
33844;SDS011;20145;43.118;25.694;2023-05-17T11:43:18;10.05;;;4.80;;
33844;SDS011;20145;43.118;25.694;2023-05-17T11:45:48;12.85;;;4.50;;
33844;SDS011;20145;43.118;25.694;2023-05-17T11:48:22;13.57;;;4.47;;
33844;SDS011;20145;43.118;25.694;2023-05-17T11:50:50;13.95;;;4.95;;
33844;SDS011;20145;43.118;25.694;2023-05-17T11:53:18;9.85;;;4.10;;
33844;SDS011;20145;43.118;25.694;2023-05-17T11:55:45;11.95;;;4.30;;
33844;SDS011;20145;43.118;25.694;2023-05-17T11:58:14;14.32;;;4.88;;
33844;SDS011;20145;43.118;25.694;2023-05-17T12:00:41;10.77;;;4.45;;
33844;SDS011;20145;43.118;25.694;2023-05-17T12:03:20;9.20;;;4.40;;
33844;SDS011;20145;43.118;25.694;2023-05-17T12:05:48;9.05;;;4.38;;
33844;SDS011;20145;43.118;25.694;2023-05-17T12:08:16;12.07;;;4.70;;
33844;SDS011;20145;43.118;25.694;2023-05-17T12:10:46;11.85;;;4.90;;
33844;SDS011;20145;43.118;25.694;2023-05-17T12:13:16;10.07;;;4.25;;
33844;SDS011;20145;43.118;25.694;2023-05-17T12:15:43;10.02;;;5.22;;
33844;SDS011;20145;43.118;25.694;2023-05-17T12:18:11;14.38;;;5.00;;
33844;SDS011;20145;43.118;25.694;2023-05-17T12:20:37;11.80;;;5.70;;
33844;SDS011;20145;43.118;25.694;2023-05-17T12:23:03;12.27;;;6.03;;
33844;SDS011;20145;43.118;25.694;2023-05-17T12:25:29;17.73;;;6.75;;
33844;SDS011;20145;43.118;25.694;2023-05-17T12:30:39;12.35;;;7.10;;
33844;SDS011;20145;43.118;25.694;2023-05-17T12:33:05;13.80;;;6.85;;
33844;SDS011;20145;43.118;25.694;2023-05-17T12:35:31;11.25;;;7.07;;
33844;SDS011;20145;43.118;25.694;2023-05-17T12:37:57;18.13;;;7.25;;
33844;SDS011;20145;43.118;25.694;2023-05-17T12:40:24;12.90;;;6.47;;
33844;SDS011;20145;43.118;25.694;2023-05-17T12:42:49;15.75;;;7.35;;
33844;SDS011;20145;43.118;25.694;2023-05-17T12:45:15;13.63;;;7.28;;
33844;SDS011;20145;43.118;25.694;2023-05-17T12:47:41;12.85;;;7.15;;
33844;SDS011;20145;43.118;25.694;2023-05-17T12:50:07;11.65;;;7.25;;
33844;SDS011;20145;43.118;25.694;2023-05-17T12:52:34;16.40;;;7.22;;
33844;SDS011;20145;43.118;25.694;2023-05-17T12:55:03;11.73;;;7.43;;
33844;SDS011;20145;43.118;25.694;2023-05-17T12:57:29;13.43;;;8.00;;
33844;SDS011;20145;43.118;25.694;2023-05-17T12:59:55;16.67;;;8.30;;
33844;SDS011;20145;43.118;25.694;2023-05-17T13:02:21;13.63;;;7.72;;
33844;SDS011;20145;43.118;25.694;2023-05-17T13:04:47;15.43;;;7.45;;
33844;SDS011;20145;43.118;25.694;2023-05-17T13:07:19;11.98;;;8.10;;
33844;SDS011;20145;43.118;25.694;2023-05-17T13:09:47;14.70;;;7.82;;
33844;SDS011;20145;43.118;25.694;2023-05-17T13:12:19;15.40;;;8.00;;
33844;SDS011;20145;43.118;25.694;2023-05-17T13:14:47;15.32;;;7.25;;
33844;SDS011;20145;43.118;25.694;2023-05-17T13:17:25;14.88;;;7.75;;
33844;SDS011;20145;43.118;25.694;2023-05-17T13:19:59;12.82;;;7.32;;
33844;SDS011;20145;43.118;25.694;2023-05-17T13:22:26;13.93;;;7.72;;
33844;SDS011;20145;43.118;25.694;2023-05-17T13:24:53;15.13;;;8.50;;
33844;SDS011;20145;43.118;25.694;2023-05-17T13:27:19;14.77;;;8.15;;
33844;SDS011;20145;43.118;25.694;2023-05-17T13:29:44;15.15;;;8.80;;
33844;SDS011;20145;43.118;25.694;2023-05-17T13:32:10;14.15;;;8.13;;
33844;SDS011;20145;43.118;25.694;2023-05-17T13:34:38;16.08;;;7.30;;
33844;SDS011;20145;43.118;25.694;2023-05-17T13:37:04;9.35;;;6.53;;
33844;SDS011;20145;43.118;25.694;2023-05-17T13:39:30;12.82;;;7.40;;
33844;SDS011;20145;43.118;25.694;2023-05-17T13:41:56;12.13;;;6.80;;
33844;SDS011;20145;43.118;25.694;2023-05-17T13:44:23;11.68;;;7.10;;
33844;SDS011;20145;43.118;25.694;2023-05-17T13:46:49;11.65;;;6.80;;
33844;SDS011;20145;43.118;25.694;2023-05-17T13:49:15;11.52;;;6.55;;
33844;SDS011;20145;43.118;25.694;2023-05-17T13:51:41;12.60;;;6.55;;
33844;SDS011;20145;43.118;25.694;2023-05-17T13:54:08;10.38;;;5.95;;
33844;SDS011;20145;43.118;25.694;2023-05-17T13:56:34;12.75;;;6.60;;
33844;SDS011;20145;43.118;25.694;2023-05-17T13:59:00;9.85;;;6.68;;
33844;SDS011;20145;43.118;25.694;2023-05-17T14:01:26;14.75;;;6.22;;
33844;SDS011;20145;43.118;25.694;2023-05-17T14:03:51;12.07;;;5.60;;
33844;SDS011;20145;43.118;25.694;2023-05-17T14:06:18;10.38;;;6.10;;
33844;SDS011;20145;43.118;25.694;2023-05-17T14:08:44;8.90;;;5.55;;
33844;SDS011;20145;43.118;25.694;2023-05-17T14:11:10;10.40;;;5.07;;
33844;SDS011;20145;43.118;25.694;2023-05-17T14:13:36;9.13;;;4.43;;
33844;SDS011;20145;43.118;25.694;2023-05-17T14:16:01;7.85;;;4.47;;
33844;SDS011;20145;43.118;25.694;2023-05-17T14:18:27;7.70;;;4.90;;
33844;SDS011;20145;43.118;25.694;2023-05-17T14:20:53;13.27;;;5.70;;
33844;SDS011;20145;43.118;25.694;2023-05-17T14:23:18;8.48;;;5.95;;
33844;SDS011;20145;43.118;25.694;2023-05-17T14:25:45;13.25;;;7.05;;
33844;SDS011;20145;43.118;25.694;2023-05-17T14:28:13;12.20;;;5.78;;
33844;SDS011;20145;43.118;25.694;2023-05-17T14:30:40;9.35;;;5.47;;
33844;SDS011;20145;43.118;25.694;2023-05-17T14:33:06;9.40;;;6.57;;
33844;SDS011;20145;43.118;25.694;2023-05-17T14:35:31;9.55;;;6.43;;
33844;SDS011;20145;43.118;25.694;2023-05-17T14:37:57;13.77;;;7.32;;
33844;SDS011;20145;43.118;25.694;2023-05-17T14:40:22;12.98;;;6.68;;
33844;SDS011;20145;43.118;25.694;2023-05-17T14:42:48;11.55;;;7.32;;
33844;SDS011;20145;43.118;25.694;2023-05-17T14:45:13;10.75;;;6.85;;
33844;SDS011;20145;43.118;25.694;2023-05-17T14:47:39;11.05;;;6.78;;
33844;SDS011;20145;43.118;25.694;2023-05-17T14:50:04;13.90;;;6.32;;
33844;SDS011;20145;43.118;25.694;2023-05-17T14:52:31;11.20;;;6.60;;
33844;SDS011;20145;43.118;25.694;2023-05-17T14:54:57;9.52;;;6.75;;
33844;SDS011;20145;43.118;25.694;2023-05-17T14:57:23;8.82;;;5.57;;
33844;SDS011;20145;43.118;25.694;2023-05-17T14:59:48;8.32;;;5.90;;